Abbeville, Louisiana
Current Conditions -  °F | °C
As of 9:35 PM on Friday 28 Nov 2014 (Local Time) from KIYA Reporting Station
Clear Clear  
Wind Chill: 52°   Ceiling: Unl
Heat Index: 52°   Visibility: 10mi
Dew Point: 49°   Wind: 8mph
Humidity: 91%   Direction: 130°SE
Pressure: 30.23"   Gusts: NA
Location:  29.97°N, 92.13°W
Report Text: KIYA 290335Z AUTO 13007KT 10SM CLR 11/10 A3023 RMK AO2 T01110097
Loading
Personal Weather Stations






























Interactive Weather Map New forecast layout! Learn more

10-Day Weather Forecast

Advertisements
Track Severe Weather on mobile